sensor_id;sensor_type;location;lat;lon;timestamp;P1;durP1;ratioP1;P2;durP2;ratioP2
11847;SDS011;5983;49.966;8.052;2022-12-04T00:00:02;12.33;;;8.03;;
11847;SDS011;5983;49.966;8.052;2022-12-04T00:02:32;12.00;;;7.40;;
11847;SDS011;5983;49.966;8.052;2022-12-04T00:04:59;15.33;;;7.87;;
11847;SDS011;5983;49.966;8.052;2022-12-04T00:07:27;15.17;;;8.20;;
11847;SDS011;5983;49.966;8.052;2022-12-04T00:09:54;11.57;;;7.33;;
11847;SDS011;5983;49.966;8.052;2022-12-04T00:12:22;12.63;;;7.57;;
11847;SDS011;5983;49.966;8.052;2022-12-04T00:14:50;15.83;;;8.30;;
11847;SDS011;5983;49.966;8.052;2022-12-04T00:17:17;14.70;;;8.23;;
11847;SDS011;5983;49.966;8.052;2022-12-04T00:19:44;12.97;;;7.97;;
11847;SDS011;5983;49.966;8.052;2022-12-04T00:22:10;13.63;;;8.63;;
11847;SDS011;5983;49.966;8.052;2022-12-04T00:24:37;16.63;;;8.10;;
11847;SDS011;5983;49.966;8.052;2022-12-04T00:27:04;13.90;;;7.63;;
11847;SDS011;5983;49.966;8.052;2022-12-04T00:29:33;11.57;;;7.77;;
11847;SDS011;5983;49.966;8.052;2022-12-04T00:32:00;13.37;;;8.10;;
11847;SDS011;5983;49.966;8.052;2022-12-04T00:34:27;14.23;;;8.20;;
11847;SDS011;5983;49.966;8.052;2022-12-04T00:36:54;15.27;;;9.07;;
11847;SDS011;5983;49.966;8.052;2022-12-04T00:39:23;12.17;;;7.67;;
11847;SDS011;5983;49.966;8.052;2022-12-04T00:41:50;11.83;;;7.37;;
11847;SDS011;5983;49.966;8.052;2022-12-04T00:44:17;14.47;;;7.83;;
11847;SDS011;5983;49.966;8.052;2022-12-04T00:46:45;12.33;;;7.70;;
11847;SDS011;5983;49.966;8.052;2022-12-04T00:49:12;14.93;;;7.60;;
11847;SDS011;5983;49.966;8.052;2022-12-04T00:51:39;14.37;;;8.23;;
11847;SDS011;5983;49.966;8.052;2022-12-04T00:54:06;12.47;;;7.60;;
11847;SDS011;5983;49.966;8.052;2022-12-04T00:56:33;14.87;;;7.90;;
11847;SDS011;5983;49.966;8.052;2022-12-04T00:59:00;9.73;;;6.40;;
11847;SDS011;5983;49.966;8.052;2022-12-04T01:01:27;12.13;;;7.73;;
11847;SDS011;5983;49.966;8.052;2022-12-04T01:03:57;13.27;;;7.37;;
11847;SDS011;5983;49.966;8.052;2022-12-04T01:06:24;13.13;;;8.13;;
11847;SDS011;5983;49.966;8.052;2022-12-04T01:08:55;13.47;;;7.93;;
11847;SDS011;5983;49.966;8.052;2022-12-04T01:11:27;12.57;;;7.40;;
11847;SDS011;5983;49.966;8.052;2022-12-04T01:13:57;15.00;;;8.70;;
11847;SDS011;5983;49.966;8.052;2022-12-04T01:16:26;11.07;;;6.90;;
11847;SDS011;5983;49.966;8.052;2022-12-04T01:18:57;11.97;;;7.43;;
11847;SDS011;5983;49.966;8.052;2022-12-04T01:21:25;11.37;;;7.50;;
11847;SDS011;5983;49.966;8.052;2022-12-04T01:23:53;11.40;;;7.73;;
11847;SDS011;5983;49.966;8.052;2022-12-04T01:26:22;12.70;;;7.53;;
11847;SDS011;5983;49.966;8.052;2022-12-04T01:28:50;13.70;;;7.97;;
11847;SDS011;5983;49.966;8.052;2022-12-04T01:31:17;13.83;;;7.77;;
11847;SDS011;5983;49.966;8.052;2022-12-04T01:33:47;11.93;;;7.67;;
11847;SDS011;5983;49.966;8.052;2022-12-04T01:36:19;11.03;;;6.93;;
11847;SDS011;5983;49.966;8.052;2022-12-04T01:38:48;13.60;;;8.07;;
11847;SDS011;5983;49.966;8.052;2022-12-04T01:41:18;13.13;;;8.00;;
11847;SDS011;5983;49.966;8.052;2022-12-04T01:46:37;10.83;;;7.37;;
11847;SDS011;5983;49.966;8.052;2022-12-04T01:49:05;14.43;;;8.17;;
11847;SDS011;5983;49.966;8.052;2022-12-04T01:51:39;12.83;;;7.93;;
11847;SDS011;5983;49.966;8.052;2022-12-04T01:54:13;14.53;;;8.40;;
11847;SDS011;5983;49.966;8.052;2022-12-04T01:56:45;13.63;;;8.10;;
11847;SDS011;5983;49.966;8.052;2022-12-04T01:59:18;12.10;;;7.93;;
11847;SDS011;5983;49.966;8.052;2022-12-04T02:01:52;13.90;;;7.87;;
11847;SDS011;5983;49.966;8.052;2022-12-04T02:04:25;12.27;;;7.53;;
11847;SDS011;5983;49.966;8.052;2022-12-04T02:06:54;12.57;;;7.97;;
11847;SDS011;5983;49.966;8.052;2022-12-04T02:09:21;13.37;;;7.67;;
11847;SDS011;5983;49.966;8.052;2022-12-04T02:11:51;10.00;;;7.23;;
11847;SDS011;5983;49.966;8.052;2022-12-04T02:14:30;12.77;;;7.80;;
11847;SDS011;5983;49.966;8.052;2022-12-04T02:17:07;12.23;;;7.63;;
11847;SDS011;5983;49.966;8.052;2022-12-04T02:19:57;12.73;;;7.97;;
11847;SDS011;5983;49.966;8.052;2022-12-04T02:25:46;11.90;;;7.67;;
11847;SDS011;5983;49.966;8.052;2022-12-04T02:28:28;13.60;;;7.43;;
11847;SDS011;5983;49.966;8.052;2022-12-04T02:31:05;13.33;;;7.97;;
11847;SDS011;5983;49.966;8.052;2022-12-04T02:33:41;12.73;;;7.53;;
11847;SDS011;5983;49.966;8.052;2022-12-04T02:36:19;11.83;;;7.67;;
11847;SDS011;5983;49.966;8.052;2022-12-04T02:38:51;12.20;;;7.13;;
11847;SDS011;5983;49.966;8.052;2022-12-04T02:41:24;9.60;;;6.80;;
11847;SDS011;5983;49.966;8.052;2022-12-04T02:44:02;11.07;;;7.43;;
11847;SDS011;5983;49.966;8.052;2022-12-04T02:46:36;12.60;;;7.33;;
11847;SDS011;5983;49.966;8.052;2022-12-04T02:49:10;13.97;;;8.20;;
11847;SDS011;5983;49.966;8.052;2022-12-04T02:51:42;12.63;;;7.33;;
11847;SDS011;5983;49.966;8.052;2022-12-04T02:54:16;11.27;;;7.47;;
11847;SDS011;5983;49.966;8.052;2022-12-04T02:56:51;11.03;;;6.77;;
11847;SDS011;5983;49.966;8.052;2022-12-04T02:59:21;10.60;;;7.07;;
11847;SDS011;5983;49.966;8.052;2022-12-04T03:01:55;10.40;;;6.90;;
11847;SDS011;5983;49.966;8.052;2022-12-04T03:04:27;10.00;;;6.90;;
11847;SDS011;5983;49.966;8.052;2022-12-04T03:06:56;12.37;;;8.03;;
11847;SDS011;5983;49.966;8.052;2022-12-04T03:09:28;11.87;;;7.40;;
11847;SDS011;5983;49.966;8.052;2022-12-04T03:12:05;11.00;;;6.93;;
11847;SDS011;5983;49.966;8.052;2022-12-04T03:14:40;10.97;;;7.23;;
11847;SDS011;5983;49.966;8.052;2022-12-04T03:17:14;12.20;;;7.07;;
11847;SDS011;5983;49.966;8.052;2022-12-04T03:19:49;12.93;;;7.67;;
11847;SDS011;5983;49.966;8.052;2022-12-04T03:22:21;12.63;;;7.60;;
11847;SDS011;5983;49.966;8.052;2022-12-04T03:24:52;11.87;;;7.67;;
11847;SDS011;5983;49.966;8.052;2022-12-04T03:27:22;11.00;;;6.97;;
11847;SDS011;5983;49.966;8.052;2022-12-04T03:30:00;11.63;;;7.07;;
11847;SDS011;5983;49.966;8.052;2022-12-04T03:32:32;11.47;;;6.67;;
11847;SDS011;5983;49.966;8.052;2022-12-04T03:35:06;11.83;;;7.40;;
11847;SDS011;5983;49.966;8.052;2022-12-04T03:37:42;13.37;;;7.33;;
11847;SDS011;5983;49.966;8.052;2022-12-04T03:40:20;12.60;;;7.80;;
11847;SDS011;5983;49.966;8.052;2022-12-04T03:42:55;11.27;;;7.60;;
11847;SDS011;5983;49.966;8.052;2022-12-04T03:45:33;10.90;;;6.67;;
11847;SDS011;5983;49.966;8.052;2022-12-04T03:48:08;12.00;;;7.30;;
11847;SDS011;5983;49.966;8.052;2022-12-04T03:50:44;12.93;;;7.47;;
11847;SDS011;5983;49.966;8.052;2022-12-04T03:53:17;13.53;;;7.67;;
11847;SDS011;5983;49.966;8.052;2022-12-04T03:55:53;12.40;;;7.50;;
11847;SDS011;5983;49.966;8.052;2022-12-04T03:58:27;10.03;;;6.73;;
11847;SDS011;5983;49.966;8.052;2022-12-04T04:01:00;12.47;;;7.20;;
11847;SDS011;5983;49.966;8.052;2022-12-04T04:03:32;10.77;;;6.80;;
11847;SDS011;5983;49.966;8.052;2022-12-04T04:06:05;10.13;;;7.40;;
11847;SDS011;5983;49.966;8.052;2022-12-04T04:08:39;11.03;;;8.03;;
11847;SDS011;5983;49.966;8.052;2022-12-04T04:11:11;10.27;;;7.37;;
11847;SDS011;5983;49.966;8.052;2022-12-04T04:13:45;11.97;;;7.30;;
11847;SDS011;5983;49.966;8.052;2022-12-04T04:16:38;11.17;;;7.40;;
11847;SDS011;5983;49.966;8.052;2022-12-04T04:19:28;12.23;;;7.10;;
11847;SDS011;5983;49.966;8.052;2022-12-04T04:22:17;11.83;;;7.53;;
11847;SDS011;5983;49.966;8.052;2022-12-04T04:25:06;9.47;;;6.83;;
11847;SDS011;5983;49.966;8.052;2022-12-04T04:27:38;10.67;;;6.87;;
11847;SDS011;5983;49.966;8.052;2022-12-04T04:30:06;9.77;;;7.03;;
11847;SDS011;5983;49.966;8.052;2022-12-04T04:32:37;10.70;;;7.27;;
11847;SDS011;5983;49.966;8.052;2022-12-04T04:35:12;8.70;;;6.30;;
11847;SDS011;5983;49.966;8.052;2022-12-04T04:37:49;11.23;;;7.50;;
11847;SDS011;5983;49.966;8.052;2022-12-04T04:40:28;9.93;;;6.53;;
11847;SDS011;5983;49.966;8.052;2022-12-04T04:43:04;10.90;;;7.23;;
11847;SDS011;5983;49.966;8.052;2022-12-04T04:45:42;12.53;;;7.03;;
11847;SDS011;5983;49.966;8.052;2022-12-04T04:48:15;12.03;;;7.20;;
11847;SDS011;5983;49.966;8.052;2022-12-04T04:50:51;10.17;;;6.23;;
11847;SDS011;5983;49.966;8.052;2022-12-04T04:53:20;11.80;;;6.40;;
11847;SDS011;5983;49.966;8.052;2022-12-04T04:55:52;11.60;;;6.63;;
11847;SDS011;5983;49.966;8.052;2022-12-04T04:58:20;9.90;;;6.70;;
11847;SDS011;5983;49.966;8.052;2022-12-04T05:00:49;11.50;;;7.37;;
11847;SDS011;5983;49.966;8.052;2022-12-04T05:03:25;11.50;;;7.30;;
11847;SDS011;5983;49.966;8.052;2022-12-04T05:05:53;9.33;;;6.40;;
11847;SDS011;5983;49.966;8.052;2022-12-04T05:08:20;9.83;;;6.67;;
11847;SDS011;5983;49.966;8.052;2022-12-04T05:10:48;11.70;;;7.40;;
11847;SDS011;5983;49.966;8.052;2022-12-04T05:13:15;11.37;;;7.50;;
11847;SDS011;5983;49.966;8.052;2022-12-04T05:15:43;11.30;;;7.13;;
11847;SDS011;5983;49.966;8.052;2022-12-04T05:18:20;11.23;;;7.60;;
11847;SDS011;5983;49.966;8.052;2022-12-04T05:20:48;11.07;;;7.40;;
11847;SDS011;5983;49.966;8.052;2022-12-04T05:23:14;11.20;;;6.90;;
11847;SDS011;5983;49.966;8.052;2022-12-04T05:25:41;10.00;;;6.50;;
11847;SDS011;5983;49.966;8.052;2022-12-04T05:28:08;10.47;;;6.93;;
11847;SDS011;5983;49.966;8.052;2022-12-04T05:30:35;10.30;;;6.70;;
11847;SDS011;5983;49.966;8.052;2022-12-04T05:33:02;11.27;;;6.80;;
11847;SDS011;5983;49.966;8.052;2022-12-04T05:35:29;10.37;;;6.60;;
11847;SDS011;5983;49.966;8.052;2022-12-04T05:37:57;10.87;;;6.83;;
11847;SDS011;5983;49.966;8.052;2022-12-04T05:40:24;9.90;;;6.50;;
11847;SDS011;5983;49.966;8.052;2022-12-04T05:42:51;10.10;;;6.97;;
11847;SDS011;5983;49.966;8.052;2022-12-04T05:45:18;10.77;;;7.40;;
11847;SDS011;5983;49.966;8.052;2022-12-04T05:47:45;10.07;;;6.37;;
11847;SDS011;5983;49.966;8.052;2022-12-04T05:50:12;10.70;;;7.10;;
11847;SDS011;5983;49.966;8.052;2022-12-04T05:52:39;10.33;;;6.07;;
11847;SDS011;5983;49.966;8.052;2022-12-04T05:55:08;9.60;;;6.20;;
11847;SDS011;5983;49.966;8.052;2022-12-04T05:57:35;11.27;;;6.17;;
11847;SDS011;5983;49.966;8.052;2022-12-04T06:00:02;10.87;;;6.47;;
11847;SDS011;5983;49.966;8.052;2022-12-04T06:02:32;11.27;;;7.30;;
11847;SDS011;5983;49.966;8.052;2022-12-04T06:04:59;10.87;;;6.70;;
11847;SDS011;5983;49.966;8.052;2022-12-04T06:07:26;9.93;;;6.63;;
11847;SDS011;5983;49.966;8.052;2022-12-04T06:09:53;10.50;;;6.37;;
11847;SDS011;5983;49.966;8.052;2022-12-04T06:12:22;11.50;;;6.93;;
11847;SDS011;5983;49.966;8.052;2022-12-04T06:14:49;11.87;;;7.23;;
11847;SDS011;5983;49.966;8.052;2022-12-04T06:17:15;10.53;;;6.87;;
11847;SDS011;5983;49.966;8.052;2022-12-04T06:19:42;13.50;;;8.23;;
11847;SDS011;5983;49.966;8.052;2022-12-04T06:22:09;12.33;;;7.53;;
11847;SDS011;5983;49.966;8.052;2022-12-04T06:24:37;10.80;;;6.87;;
11847;SDS011;5983;49.966;8.052;2022-12-04T06:27:04;11.67;;;7.43;;
11847;SDS011;5983;49.966;8.052;2022-12-04T06:29:32;12.90;;;7.23;;
11847;SDS011;5983;49.966;8.052;2022-12-04T06:31:59;10.67;;;6.60;;
11847;SDS011;5983;49.966;8.052;2022-12-04T06:34:26;10.90;;;6.73;;
11847;SDS011;5983;49.966;8.052;2022-12-04T06:36:53;10.73;;;6.63;;
11847;SDS011;5983;49.966;8.052;2022-12-04T06:39:20;9.97;;;6.93;;
11847;SDS011;5983;49.966;8.052;2022-12-04T06:41:47;12.30;;;7.20;;
11847;SDS011;5983;49.966;8.052;2022-12-04T06:44:15;12.70;;;7.70;;
11847;SDS011;5983;49.966;8.052;2022-12-04T06:46:44;10.87;;;6.87;;
11847;SDS011;5983;49.966;8.052;2022-12-04T06:49:10;12.30;;;6.67;;
11847;SDS011;5983;49.966;8.052;2022-12-04T06:51:37;11.43;;;6.13;;
11847;SDS011;5983;49.966;8.052;2022-12-04T06:54:05;11.00;;;7.27;;
11847;SDS011;5983;49.966;8.052;2022-12-04T06:56:32;12.70;;;6.47;;
11847;SDS011;5983;49.966;8.052;2022-12-04T06:59:00;11.27;;;6.90;;
11847;SDS011;5983;49.966;8.052;2022-12-04T07:01:30;12.77;;;6.80;;
11847;SDS011;5983;49.966;8.052;2022-12-04T07:04:00;12.20;;;7.63;;
11847;SDS011;5983;49.966;8.052;2022-12-04T07:06:30;14.57;;;7.73;;
11847;SDS011;5983;49.966;8.052;2022-12-04T07:08:59;11.17;;;7.23;;
11847;SDS011;5983;49.966;8.052;2022-12-04T07:11:29;12.80;;;7.10;;
11847;SDS011;5983;49.966;8.052;2022-12-04T07:13:56;12.33;;;7.30;;
11847;SDS011;5983;49.966;8.052;2022-12-04T07:16:24;12.23;;;7.00;;
11847;SDS011;5983;49.966;8.052;2022-12-04T07:18:52;12.80;;;6.70;;
11847;SDS011;5983;49.966;8.052;2022-12-04T07:21:22;12.47;;;7.40;;
11847;SDS011;5983;49.966;8.052;2022-12-04T07:23:52;11.83;;;7.07;;
11847;SDS011;5983;49.966;8.052;2022-12-04T07:26:21;11.53;;;7.13;;
11847;SDS011;5983;49.966;8.052;2022-12-04T07:28:49;11.30;;;7.30;;
11847;SDS011;5983;49.966;8.052;2022-12-04T07:31:17;11.03;;;7.07;;
11847;SDS011;5983;49.966;8.052;2022-12-04T07:33:47;13.10;;;6.87;;
11847;SDS011;5983;49.966;8.052;2022-12-04T07:36:15;10.93;;;6.70;;
11847;SDS011;5983;49.966;8.052;2022-12-04T07:38:46;13.63;;;7.03;;
11847;SDS011;5983;49.966;8.052;2022-12-04T07:41:14;10.40;;;6.83;;
11847;SDS011;5983;49.966;8.052;2022-12-04T07:43:41;11.40;;;6.77;;
11847;SDS011;5983;49.966;8.052;2022-12-04T07:46:09;11.67;;;6.37;;
11847;SDS011;5983;49.966;8.052;2022-12-04T07:48:40;11.17;;;6.27;;
11847;SDS011;5983;49.966;8.052;2022-12-04T07:51:09;10.30;;;6.33;;
11847;SDS011;5983;49.966;8.052;2022-12-04T07:53:37;10.10;;;6.33;;
11847;SDS011;5983;49.966;8.052;2022-12-04T07:56:07;10.93;;;7.17;;
11847;SDS011;5983;49.966;8.052;2022-12-04T07:58:36;12.67;;;6.90;;
11847;SDS011;5983;49.966;8.052;2022-12-04T08:01:05;9.53;;;5.83;;
11847;SDS011;5983;49.966;8.052;2022-12-04T08:03:34;10.30;;;5.93;;
11847;SDS011;5983;49.966;8.052;2022-12-04T08:06:01;11.03;;;6.40;;
11847;SDS011;5983;49.966;8.052;2022-12-04T08:08:30;8.70;;;5.90;;
11847;SDS011;5983;49.966;8.052;2022-12-04T08:10:58;10.27;;;6.20;;
11847;SDS011;5983;49.966;8.052;2022-12-04T08:13:27;11.00;;;6.23;;
11847;SDS011;5983;49.966;8.052;2022-12-04T08:15:54;10.20;;;6.50;;
11847;SDS011;5983;49.966;8.052;2022-12-04T08:18:21;10.50;;;6.30;;
11847;SDS011;5983;49.966;8.052;2022-12-04T08:20:48;9.80;;;6.57;;
11847;SDS011;5983;49.966;8.052;2022-12-04T08:23:15;10.50;;;6.30;;
11847;SDS011;5983;49.966;8.052;2022-12-04T08:25:42;11.67;;;6.37;;
11847;SDS011;5983;49.966;8.052;2022-12-04T08:28:09;9.87;;;6.13;;
11847;SDS011;5983;49.966;8.052;2022-12-04T08:30:38;9.53;;;6.53;;
11847;SDS011;5983;49.966;8.052;2022-12-04T08:33:04;13.40;;;6.70;;
11847;SDS011;5983;49.966;8.052;2022-12-04T08:35:32;9.50;;;5.87;;
11847;SDS011;5983;49.966;8.052;2022-12-04T08:37:59;10.17;;;6.07;;
11847;SDS011;5983;49.966;8.052;2022-12-04T08:40:26;12.00;;;5.63;;
11847;SDS011;5983;49.966;8.052;2022-12-04T08:42:53;8.53;;;6.00;;
11847;SDS011;5983;49.966;8.052;2022-12-04T08:45:20;8.83;;;5.77;;
11847;SDS011;5983;49.966;8.052;2022-12-04T08:47:49;9.13;;;6.27;;
11847;SDS011;5983;49.966;8.052;2022-12-04T08:50:16;12.67;;;6.47;;
11847;SDS011;5983;49.966;8.052;2022-12-04T08:52:43;9.70;;;6.30;;
11847;SDS011;5983;49.966;8.052;2022-12-04T08:55:10;10.73;;;6.47;;
11847;SDS011;5983;49.966;8.052;2022-12-04T08:57:37;8.57;;;5.57;;
11847;SDS011;5983;49.966;8.052;2022-12-04T09:00:04;8.37;;;6.17;;
11847;SDS011;5983;49.966;8.052;2022-12-04T09:02:32;10.63;;;5.87;;
11847;SDS011;5983;49.966;8.052;2022-12-04T09:05:01;9.40;;;6.40;;
11847;SDS011;5983;49.966;8.052;2022-12-04T09:07:27;8.90;;;5.90;;
11847;SDS011;5983;49.966;8.052;2022-12-04T09:09:54;10.90;;;6.60;;
11847;SDS011;5983;49.966;8.052;2022-12-04T09:12:21;12.47;;;8.07;;
11847;SDS011;5983;49.966;8.052;2022-12-04T09:14:48;10.93;;;6.37;;
11847;SDS011;5983;49.966;8.052;2022-12-04T09:17:15;9.57;;;6.30;;
11847;SDS011;5983;49.966;8.052;2022-12-04T09:19:42;11.60;;;6.53;;
11847;SDS011;5983;49.966;8.052;2022-12-04T09:22:11;10.60;;;6.07;;
11847;SDS011;5983;49.966;8.052;2022-12-04T09:24:38;11.33;;;5.83;;
11847;SDS011;5983;49.966;8.052;2022-12-04T09:27:04;10.57;;;6.07;;
11847;SDS011;5983;49.966;8.052;2022-12-04T09:29:31;7.60;;;4.67;;
11847;SDS011;5983;49.966;8.052;2022-12-04T09:31:58;9.20;;;5.10;;
11847;SDS011;5983;49.966;8.052;2022-12-04T09:34:25;9.23;;;5.93;;
11847;SDS011;5983;49.966;8.052;2022-12-04T09:36:52;8.50;;;5.80;;
11847;SDS011;5983;49.966;8.052;2022-12-04T09:39:21;11.47;;;5.77;;
11847;SDS011;5983;49.966;8.052;2022-12-04T09:44:56;8.60;;;5.53;;
11847;SDS011;5983;49.966;8.052;2022-12-04T09:47:30;9.83;;;5.90;;
11847;SDS011;5983;49.966;8.052;2022-12-04T09:50:03;8.40;;;5.30;;
11847;SDS011;5983;49.966;8.052;2022-12-04T09:52:49;12.10;;;7.47;;
11847;SDS011;5983;49.966;8.052;2022-12-04T09:55:25;12.73;;;7.47;;
11847;SDS011;5983;49.966;8.052;2022-12-04T09:57:57;8.17;;;5.43;;
11847;SDS011;5983;49.966;8.052;2022-12-04T10:00:29;10.30;;;5.43;;
11847;SDS011;5983;49.966;8.052;2022-12-04T10:03:02;7.57;;;5.10;;
11847;SDS011;5983;49.966;8.052;2022-12-04T10:05:36;7.17;;;5.13;;
11847;SDS011;5983;49.966;8.052;2022-12-04T10:08:15;9.57;;;6.23;;
11847;SDS011;5983;49.966;8.052;2022-12-04T10:10:51;8.07;;;5.10;;
11847;SDS011;5983;49.966;8.052;2022-12-04T10:13:36;11.50;;;5.53;;
11847;SDS011;5983;49.966;8.052;2022-12-04T10:16:27;8.50;;;5.63;;
11847;SDS011;5983;49.966;8.052;2022-12-04T10:19:12;7.60;;;5.33;;
11847;SDS011;5983;49.966;8.052;2022-12-04T10:21:52;11.03;;;6.50;;
11847;SDS011;5983;49.966;8.052;2022-12-04T10:24:35;9.40;;;6.10;;
11847;SDS011;5983;49.966;8.052;2022-12-04T10:27:11;10.37;;;5.77;;
11847;SDS011;5983;49.966;8.052;2022-12-04T10:29:45;9.40;;;5.37;;
11847;SDS011;5983;49.966;8.052;2022-12-04T10:32:19;9.77;;;6.00;;
11847;SDS011;5983;49.966;8.052;2022-12-04T10:34:52;11.17;;;6.70;;
11847;SDS011;5983;49.966;8.052;2022-12-04T10:37:25;8.33;;;5.67;;
11847;SDS011;5983;49.966;8.052;2022-12-04T10:39:53;7.70;;;5.53;;
11847;SDS011;5983;49.966;8.052;2022-12-04T10:42:30;7.47;;;5.00;;
11847;SDS011;5983;49.966;8.052;2022-12-04T10:45:05;10.47;;;5.83;;
11847;SDS011;5983;49.966;8.052;2022-12-04T10:47:43;9.33;;;6.73;;
11847;SDS011;5983;49.966;8.052;2022-12-04T10:50:15;11.03;;;6.47;;
11847;SDS011;5983;49.966;8.052;2022-12-04T10:52:44;10.57;;;6.27;;
11847;SDS011;5983;49.966;8.052;2022-12-04T10:55:12;9.50;;;5.93;;
11847;SDS011;5983;49.966;8.052;2022-12-04T10:57:41;9.63;;;6.20;;
11847;SDS011;5983;49.966;8.052;2022-12-04T11:00:25;8.37;;;5.50;;
11847;SDS011;5983;49.966;8.052;2022-12-04T11:02:57;7.90;;;5.47;;
11847;SDS011;5983;49.966;8.052;2022-12-04T11:05:28;11.67;;;5.63;;
11847;SDS011;5983;49.966;8.052;2022-12-04T11:07:59;9.50;;;5.53;;
11847;SDS011;5983;49.966;8.052;2022-12-04T11:10:32;8.67;;;5.57;;
11847;SDS011;5983;49.966;8.052;2022-12-04T11:13:05;9.63;;;5.87;;
11847;SDS011;5983;49.966;8.052;2022-12-04T11:15:41;11.17;;;5.90;;
11847;SDS011;5983;49.966;8.052;2022-12-04T11:18:14;8.03;;;5.60;;
11847;SDS011;5983;49.966;8.052;2022-12-04T11:20:49;8.57;;;6.00;;
11847;SDS011;5983;49.966;8.052;2022-12-04T11:23:19;9.63;;;5.63;;
11847;SDS011;5983;49.966;8.052;2022-12-04T11:25:48;10.17;;;5.50;;
11847;SDS011;5983;49.966;8.052;2022-12-04T11:28:20;8.70;;;5.23;;
11847;SDS011;5983;49.966;8.052;2022-12-04T11:30:55;9.57;;;6.10;;
11847;SDS011;5983;49.966;8.052;2022-12-04T11:33:25;8.70;;;5.23;;
11847;SDS011;5983;49.966;8.052;2022-12-04T11:35:58;10.50;;;5.90;;
11847;SDS011;5983;49.966;8.052;2022-12-04T11:38:28;10.37;;;6.07;;
11847;SDS011;5983;49.966;8.052;2022-12-04T11:41:00;8.67;;;5.57;;
11847;SDS011;5983;49.966;8.052;2022-12-04T11:43:34;10.97;;;5.97;;
11847;SDS011;5983;49.966;8.052;2022-12-04T11:46:02;8.90;;;5.50;;
11847;SDS011;5983;49.966;8.052;2022-12-04T11:48:39;8.00;;;5.47;;
11847;SDS011;5983;49.966;8.052;2022-12-04T11:51:10;9.77;;;4.90;;
11847;SDS011;5983;49.966;8.052;2022-12-04T11:53:50;9.90;;;5.77;;
11847;SDS011;5983;49.966;8.052;2022-12-04T11:56:30;11.70;;;5.77;;
11847;SDS011;5983;49.966;8.052;2022-12-04T12:02:14;9.33;;;5.63;;
11847;SDS011;5983;49.966;8.052;2022-12-04T12:05:11;9.77;;;5.50;;
11847;SDS011;5983;49.966;8.052;2022-12-04T12:08:03;8.97;;;5.47;;
11847;SDS011;5983;49.966;8.052;2022-12-04T12:10:49;7.17;;;4.47;;
11847;SDS011;5983;49.966;8.052;2022-12-04T12:13:30;6.13;;;4.47;;
11847;SDS011;5983;49.966;8.052;2022-12-04T12:16:17;7.97;;;4.90;;
11847;SDS011;5983;49.966;8.052;2022-12-04T12:22:01;11.03;;;6.30;;
11847;SDS011;5983;49.966;8.052;2022-12-04T12:24:47;9.13;;;5.90;;
11847;SDS011;5983;49.966;8.052;2022-12-04T12:27:35;9.37;;;6.00;;
11847;SDS011;5983;49.966;8.052;2022-12-04T12:30:20;10.17;;;5.97;;
11847;SDS011;5983;49.966;8.052;2022-12-04T12:33:07;12.53;;;6.67;;
11847;SDS011;5983;49.966;8.052;2022-12-04T12:35:44;9.07;;;6.30;;
11847;SDS011;5983;49.966;8.052;2022-12-04T12:38:21;11.03;;;6.60;;
11847;SDS011;5983;49.966;8.052;2022-12-04T12:40:55;13.90;;;8.27;;
11847;SDS011;5983;49.966;8.052;2022-12-04T12:43:27;18.00;;;10.33;;
11847;SDS011;5983;49.966;8.052;2022-12-04T12:45:59;17.13;;;9.57;;
11847;SDS011;5983;49.966;8.052;2022-12-04T12:48:38;14.93;;;7.87;;
11847;SDS011;5983;49.966;8.052;2022-12-04T12:51:18;11.23;;;6.97;;
11847;SDS011;5983;49.966;8.052;2022-12-04T12:53:57;9.07;;;5.90;;
11847;SDS011;5983;49.966;8.052;2022-12-04T12:56:41;13.27;;;6.73;;
11847;SDS011;5983;49.966;8.052;2022-12-04T12:59:17;10.73;;;6.60;;
11847;SDS011;5983;49.966;8.052;2022-12-04T13:01:49;10.57;;;7.17;;
11847;SDS011;5983;49.966;8.052;2022-12-04T13:04:24;11.13;;;6.53;;
11847;SDS011;5983;49.966;8.052;2022-12-04T13:07:05;9.77;;;6.10;;
11847;SDS011;5983;49.966;8.052;2022-12-04T13:09:47;13.17;;;7.50;;
11847;SDS011;5983;49.966;8.052;2022-12-04T13:12:21;14.20;;;7.30;;
11847;SDS011;5983;49.966;8.052;2022-12-04T13:14:51;13.83;;;6.77;;
11847;SDS011;5983;49.966;8.052;2022-12-04T13:17:19;12.33;;;7.20;;
11847;SDS011;5983;49.966;8.052;2022-12-04T13:19:58;11.47;;;6.07;;
11847;SDS011;5983;49.966;8.052;2022-12-04T13:22:30;11.07;;;7.00;;
11847;SDS011;5983;49.966;8.052;2022-12-04T13:25:15;13.80;;;7.20;;
11847;SDS011;5983;49.966;8.052;2022-12-04T13:28:03;10.63;;;6.17;;
11847;SDS011;5983;49.966;8.052;2022-12-04T13:30:47;12.70;;;6.93;;
11847;SDS011;5983;49.966;8.052;2022-12-04T13:33:31;11.53;;;7.53;;
11847;SDS011;5983;49.966;8.052;2022-12-04T13:36:40;15.13;;;7.53;;
11847;SDS011;5983;49.966;8.052;2022-12-04T13:39:47;11.67;;;6.90;;
11847;SDS011;5983;49.966;8.052;2022-12-04T13:43:03;13.10;;;6.33;;
11847;SDS011;5983;49.966;8.052;2022-12-04T13:45:56;10.67;;;6.47;;
11847;SDS011;5983;49.966;8.052;2022-12-04T13:48:27;10.53;;;7.13;;
11847;SDS011;5983;49.966;8.052;2022-12-04T13:54:03;10.57;;;7.00;;
11847;SDS011;5983;49.966;8.052;2022-12-04T13:56:54;11.33;;;6.27;;
11847;SDS011;5983;49.966;8.052;2022-12-04T13:59:32;13.00;;;7.40;;
11847;SDS011;5983;49.966;8.052;2022-12-04T14:02:03;10.47;;;6.80;;
11847;SDS011;5983;49.966;8.052;2022-12-04T14:04:51;13.23;;;7.57;;
11847;SDS011;5983;49.966;8.052;2022-12-04T14:07:22;10.73;;;6.90;;
11847;SDS011;5983;49.966;8.052;2022-12-04T14:09:56;10.93;;;7.50;;
11847;SDS011;5983;49.966;8.052;2022-12-04T14:12:29;11.67;;;6.77;;
11847;SDS011;5983;49.966;8.052;2022-12-04T14:15:01;12.17;;;6.50;;
11847;SDS011;5983;49.966;8.052;2022-12-04T14:17:32;12.70;;;8.07;;
11847;SDS011;5983;49.966;8.052;2022-12-04T14:20:02;14.07;;;8.37;;
11847;SDS011;5983;49.966;8.052;2022-12-04T14:22:41;16.30;;;8.50;;
11847;SDS011;5983;49.966;8.052;2022-12-04T14:25:30;13.67;;;7.60;;
11847;SDS011;5983;49.966;8.052;2022-12-04T14:28:12;16.70;;;8.23;;
11847;SDS011;5983;49.966;8.052;2022-12-04T14:31:01;15.33;;;8.30;;
11847;SDS011;5983;49.966;8.052;2022-12-04T14:33:42;11.60;;;7.27;;
11847;SDS011;5983;49.966;8.052;2022-12-04T14:36:15;13.57;;;8.37;;
11847;SDS011;5983;49.966;8.052;2022-12-04T14:38:49;13.30;;;7.03;;
11847;SDS011;5983;49.966;8.052;2022-12-04T14:41:28;10.70;;;6.37;;
11847;SDS011;5983;49.966;8.052;2022-12-04T14:43:55;11.43;;;6.73;;
11847;SDS011;5983;49.966;8.052;2022-12-04T14:46:25;12.67;;;6.80;;
11847;SDS011;5983;49.966;8.052;2022-12-04T14:49:13;12.63;;;6.93;;
11847;SDS011;5983;49.966;8.052;2022-12-04T14:51:56;11.83;;;7.00;;
11847;SDS011;5983;49.966;8.052;2022-12-04T14:54:37;12.37;;;6.70;;
11847;SDS011;5983;49.966;8.052;2022-12-04T14:57:22;11.90;;;7.27;;
11847;SDS011;5983;49.966;8.052;2022-12-04T15:00:13;12.30;;;7.43;;
11847;SDS011;5983;49.966;8.052;2022-12-04T15:02:51;13.20;;;6.67;;
11847;SDS011;5983;49.966;8.052;2022-12-04T15:05:23;11.67;;;6.70;;
11847;SDS011;5983;49.966;8.052;2022-12-04T15:07:56;12.37;;;6.80;;
11847;SDS011;5983;49.966;8.052;2022-12-04T15:10:31;10.93;;;6.80;;
11847;SDS011;5983;49.966;8.052;2022-12-04T15:13:25;10.83;;;6.10;;
11847;SDS011;5983;49.966;8.052;2022-12-04T15:15:54;12.93;;;7.13;;
11847;SDS011;5983;49.966;8.052;2022-12-04T15:18:22;10.67;;;6.53;;
11847;SDS011;5983;49.966;8.052;2022-12-04T15:20:54;9.50;;;6.30;;
11847;SDS011;5983;49.966;8.052;2022-12-04T15:23:27;10.47;;;6.60;;
11847;SDS011;5983;49.966;8.052;2022-12-04T15:26:00;10.53;;;6.37;;
11847;SDS011;5983;49.966;8.052;2022-12-04T15:28:32;9.20;;;6.27;;
11847;SDS011;5983;49.966;8.052;2022-12-04T15:31:09;11.13;;;6.30;;
11847;SDS011;5983;49.966;8.052;2022-12-04T15:33:43;6.67;;;4.87;;
11847;SDS011;5983;49.966;8.052;2022-12-04T15:36:15;9.70;;;6.10;;
11847;SDS011;5983;49.966;8.052;2022-12-04T15:38:49;10.93;;;6.27;;
11847;SDS011;5983;49.966;8.052;2022-12-04T15:41:23;11.77;;;6.33;;